createdAt,value
2023-04-13T00:00:51.665Z,98227.59
2023-04-13T00:03:53.926Z,98223.72
2023-04-13T00:06:56.304Z,98226.75
2023-04-13T00:09:58.545Z,98225.34
2023-04-13T00:13:01.569Z,98213.34
2023-04-13T00:16:05.912Z,98210.16
2023-04-13T00:19:08.134Z,98227.78
2023-04-13T00:22:10.714Z,98223.25
2023-04-13T00:25:14.486Z,98220.38
2023-04-13T00:28:16.712Z,98222.22
2023-04-13T00:31:19.020Z,98227.66
2023-04-13T00:34:21.383Z,98221.75
2023-04-13T00:37:23.542Z,98223.09
2023-04-13T00:40:28.215Z,98214.78
2023-04-13T00:43:30.595Z,98218.41
2023-04-13T00:46:32.887Z,98211.28
2023-04-13T00:49:35.890Z,98211.88
2023-04-13T00:52:38.393Z,98223.66
2023-04-13T00:55:42.342Z,98216.34
2023-04-13T00:58:45.655Z,98215.53
2023-04-13T01:01:50.802Z,98213.31
2023-04-13T01:04:54.954Z,98214.72
2023-04-13T01:08:29.933Z,98210.00
2023-04-13T01:11:43.953Z,98206.94
2023-04-13T01:14:56.106Z,98206.72
2023-04-13T01:17:58.707Z,98207.09
2023-04-13T01:21:02.047Z,98195.47
2023-04-13T01:24:31.108Z,98186.66
2023-04-13T01:27:51.639Z,98180.03
2023-04-13T01:30:55.460Z,98178.41
2023-04-13T01:33:58.526Z,98187.22
2023-04-13T01:37:04.572Z,98181.47
2023-04-13T01:40:13.500Z,98186.31
2023-04-13T01:43:15.824Z,98186.25
2023-04-13T01:46:19.327Z,98193.16
2023-04-13T01:49:22.894Z,98196.59
2023-04-13T01:52:27.844Z,98191.66
2023-04-13T01:55:30.504Z,98202.19
2023-04-13T01:58:33.770Z,98205.78
2023-04-13T02:01:38.044Z,98201.66
2023-04-13T02:04:40.386Z,98205.50
2023-04-13T02:07:44.770Z,98202.00
2023-04-13T02:10:47.068Z,98200.16
2023-04-13T02:13:49.634Z,98197.72
2023-04-13T02:16:52.014Z,98201.63
2023-04-13T02:19:54.272Z,98198.97
2023-04-13T02:22:56.488Z,98199.38
2023-04-13T02:25:58.655Z,98200.63
2023-04-13T02:29:01.165Z,98195.34
2023-04-13T02:32:03.597Z,98203.72
2023-04-13T02:35:07.123Z,98203.72
2023-04-13T02:38:10.787Z,98205.34
2023-04-13T02:41:13.080Z,98209.19
2023-04-13T02:44:15.864Z,98211.19
2023-04-13T02:47:18.196Z,98206.69
2023-04-13T02:50:20.729Z,98208.91
2023-04-13T02:53:24.288Z,98201.41
2023-04-13T02:56:28.405Z,98200.81
2023-04-13T02:59:30.867Z,98194.84
2023-04-13T03:02:33.910Z,98205.00
2023-04-13T03:05:36.114Z,98211.69
2023-04-13T03:08:38.318Z,98205.00
2023-04-13T03:11:42.337Z,98204.56
2023-04-13T03:14:44.663Z,98203.31
2023-04-13T03:17:46.990Z,98198.59
2023-04-13T03:20:49.300Z,98200.22
2023-04-13T03:23:51.543Z,98189.03
2023-04-13T03:26:56.997Z,98190.28
2023-04-13T03:29:59.247Z,98199.25
2023-04-13T03:33:02.473Z,98187.28
2023-04-13T03:36:05.328Z,98183.81
2023-04-13T03:39:08.297Z,98178.66
2023-04-13T03:42:10.559Z,98184.53
2023-04-13T03:45:12.758Z,98188.09
2023-04-13T03:48:14.950Z,98181.53
2023-04-13T03:51:17.142Z,98189.19
2023-04-13T03:54:19.311Z,98191.53
2023-04-13T03:57:22.826Z,98194.37
2023-04-13T04:00:25.070Z,98191.06
2023-04-13T04:03:27.436Z,98197.03
2023-04-13T04:06:29.761Z,98194.25
2023-04-13T04:09:32.043Z,98197.13
2023-04-13T04:12:34.234Z,98189.75
2023-04-13T04:15:36.428Z,98191.09
2023-04-13T04:18:38.909Z,98191.25
2023-04-13T04:21:46.984Z,98190.78
2023-04-13T04:24:49.975Z,98196.47
2023-04-13T04:27:52.461Z,98187.09
2023-04-13T04:30:55.347Z,98192.41
2023-04-13T04:33:58.172Z,98184.00
2023-04-13T04:37:04.053Z,98184.28
2023-04-13T04:40:13.287Z,98187.97
2023-04-13T04:43:15.549Z,98194.37
2023-04-13T04:46:17.752Z,98200.19
2023-04-13T04:49:21.736Z,98197.97
2023-04-13T04:52:27.052Z,98201.66
2023-04-13T04:55:29.265Z,98205.06
2023-04-13T04:58:31.399Z,98202.44
2023-04-13T05:01:35.004Z,98201.75
2023-04-13T05:04:38.628Z,98195.19
2023-04-13T05:07:40.819Z,98194.37
2023-04-13T05:10:46.056Z,98203.44
2023-04-13T05:13:48.255Z,98194.00
2023-04-13T05:16:51.775Z,98199.44
2023-04-13T05:19:53.993Z,98195.09
2023-04-13T05:22:57.774Z,98205.56
2023-04-13T05:25:59.957Z,98195.66
2023-04-13T05:29:03.168Z,98195.25
2023-04-13T05:32:05.578Z,98192.78
2023-04-13T05:35:08.439Z,98193.59
2023-04-13T05:38:10.649Z,98187.94
2023-04-13T05:41:13.102Z,98188.53
2023-04-13T05:44:15.407Z,98192.09
2023-04-13T05:47:21.549Z,98193.47
2023-04-13T05:50:23.797Z,98192.34
2023-04-13T05:53:26.203Z,98197.66
2023-04-13T05:56:30.054Z,98199.38
2023-04-13T05:59:32.247Z,98202.41
2023-04-13T06:02:36.274Z,98194.37
2023-04-13T06:05:38.966Z,98196.06
2023-04-13T06:08:41.111Z,98199.97
2023-04-13T06:11:43.352Z,98202.72
2023-04-13T06:14:46.020Z,98209.00
2023-04-13T06:17:51.950Z,98213.78
2023-04-13T06:20:54.628Z,98213.78
2023-04-13T06:23:57.007Z,98207.66
2023-04-13T06:26:59.920Z,98213.91
2023-04-13T06:30:02.640Z,98222.47
2023-04-13T06:33:05.355Z,98223.59
2023-04-13T06:36:08.187Z,98226.59
2023-04-13T06:39:10.460Z,98221.94
2023-04-13T06:42:13.653Z,98220.16
2023-04-13T06:45:15.823Z,98217.19
2023-04-13T06:48:18.081Z,98217.25
2023-04-13T06:51:20.236Z,98219.91
2023-04-13T06:54:22.450Z,98224.44
2023-04-13T06:57:24.632Z,98218.63
2023-04-13T07:00:30.222Z,98232.16
2023-04-13T07:03:33.007Z,98231.28
2023-04-13T07:06:35.356Z,98224.84
2023-04-13T07:09:37.533Z,98234.13
2023-04-13T07:12:39.728Z,98231.41
2023-04-13T07:15:42.776Z,98238.84
2023-04-13T07:18:45.012Z,98244.81
2023-04-13T07:21:47.367Z,98249.47
2023-04-13T07:24:49.550Z,98237.56
2023-04-13T07:27:51.767Z,98241.03
2023-04-13T07:30:53.955Z,98239.84
2023-04-13T07:33:56.377Z,98249.28
2023-04-13T07:36:58.597Z,98242.56
2023-04-13T07:40:00.811Z,98231.44
2023-04-13T07:43:02.995Z,98241.97
2023-04-13T07:46:12.785Z,98234.75
2023-04-13T07:49:15.104Z,98237.06
2023-04-13T07:52:17.457Z,98242.13
2023-04-13T07:55:20.671Z,98237.09
2023-04-13T07:58:22.966Z,98239.66
2023-04-13T08:01:25.713Z,98238.22
2023-04-13T08:04:28.023Z,98235.25
2023-04-13T08:07:30.497Z,98239.03
2023-04-13T08:10:32.697Z,98241.91
2023-04-13T08:13:35.877Z,98237.34
2023-04-13T08:16:38.468Z,98244.41
2023-04-13T08:19:41.116Z,98237.62
2023-04-13T08:22:46.093Z,98235.91
2023-04-13T08:25:48.485Z,98242.00
2023-04-13T08:28:53.153Z,98241.13
2023-04-13T08:31:56.921Z,98246.97
2023-04-13T08:34:59.345Z,98244.44
2023-04-13T08:38:05.568Z,98244.22
2023-04-13T08:41:09.821Z,98256.25
2023-04-13T08:44:13.524Z,98241.56
2023-04-13T08:47:15.991Z,98250.84
2023-04-13T08:50:18.371Z,98249.44
2023-04-13T08:53:20.619Z,98245.53
2023-04-13T08:56:30.988Z,98243.34
2023-04-13T08:59:41.475Z,98238.00
2023-04-13T09:03:00.561Z,98238.84
2023-04-13T09:06:09.048Z,98243.66
2023-04-13T09:09:15.863Z,98239.34
2023-04-13T09:12:18.114Z,98231.84
2023-04-13T09:15:20.909Z,98240.16
2023-04-13T09:18:23.471Z,98247.41
2023-04-13T09:21:37.907Z,98242.00
2023-04-13T09:24:41.280Z,98243.59
2023-04-13T09:27:43.438Z,98249.50
2023-04-13T09:30:46.391Z,98245.44
2023-04-13T09:33:51.189Z,98249.22
2023-04-13T09:36:55.768Z,98247.63
2023-04-13T09:40:13.392Z,98239.44
2023-04-13T09:43:15.705Z,98239.53
2023-04-13T09:46:18.038Z,98239.81
2023-04-13T09:49:20.260Z,98242.03
2023-04-13T09:52:23.743Z,98240.94
2023-04-13T09:55:27.136Z,98233.09
2023-04-13T09:58:29.549Z,98232.00
2023-04-13T10:01:31.907Z,98228.78
2023-04-13T10:04:34.861Z,98230.88
2023-04-13T10:07:37.316Z,98219.56
2023-04-13T10:10:42.528Z,98220.94
2023-04-13T10:13:46.204Z,98221.62
2023-04-13T10:17:05.876Z,98218.16
2023-04-13T10:20:12.725Z,98218.16
2023-04-13T10:23:15.421Z,98216.56
2023-04-13T10:26:17.662Z,98211.19
2023-04-13T10:29:30.924Z,98225.41
2023-04-13T10:32:33.143Z,98223.81
2023-04-13T10:35:43.301Z,98225.16
2023-04-13T10:38:46.884Z,98215.22
2023-04-13T10:42:01.682Z,98222.94
2023-04-13T10:45:04.320Z,98217.03
2023-04-13T10:48:07.615Z,98206.78
2023-04-13T10:51:10.000Z,98218.31
2023-04-13T10:54:13.666Z,98209.22
2023-04-13T10:57:16.888Z,98214.81
2023-04-13T11:00:25.431Z,98203.84
2023-04-13T11:03:32.017Z,98200.66
2023-04-13T11:06:40.326Z,98189.09
2023-04-13T11:09:47.758Z,98175.09
2023-04-13T11:12:51.936Z,98182.00
2023-04-13T11:16:04.653Z,98178.00
2023-04-13T11:19:06.875Z,98181.94
2023-04-13T11:22:13.169Z,98179.06
2023-04-13T11:25:16.308Z,98187.91
2023-04-13T11:28:18.502Z,98192.00
2023-04-13T11:31:21.456Z,98185.22
2023-04-13T11:34:28.869Z,98180.75
2023-04-13T11:37:39.317Z,98177.25
2023-04-13T11:40:45.294Z,98186.37
2023-04-13T11:43:50.749Z,98176.53
2023-04-13T11:46:53.986Z,98176.97
2023-04-13T11:49:56.379Z,98166.59
2023-04-13T11:52:59.098Z,98169.50
2023-04-13T11:56:01.630Z,98170.63
2023-04-13T11:59:03.812Z,98173.00
2023-04-13T12:02:15.514Z,98163.91
2023-04-13T12:05:25.998Z,98163.91
2023-04-13T12:08:30.481Z,98162.59
2023-04-13T12:11:42.119Z,98157.47
2023-04-13T12:18:14.628Z,98161.81
2023-04-13T12:21:20.450Z,98157.22
2023-04-13T12:24:33.073Z,98147.03
2023-04-13T12:27:40.169Z,98145.84
2023-04-13T12:30:42.386Z,98142.34
2023-04-13T12:33:44.566Z,98136.97
2023-04-13T12:36:46.875Z,98138.50
2023-04-13T12:39:49.023Z,98136.38
2023-04-13T12:42:51.631Z,98135.03
2023-04-13T12:45:54.985Z,98133.47
2023-04-13T12:48:57.213Z,98111.47
2023-04-13T12:51:59.367Z,98106.88
2023-04-13T12:55:02.371Z,98114.78
2023-04-13T12:58:04.599Z,98108.13
2023-04-13T13:01:07.153Z,98110.00
2023-04-13T13:04:09.458Z,98095.19
2023-04-13T13:07:11.765Z,98099.78
2023-04-13T13:10:29.267Z,98102.03
2023-04-13T13:13:32.029Z,98102.06
2023-04-13T13:16:34.290Z,98104.13
2023-04-13T13:19:36.482Z,98101.03
2023-04-13T13:22:38.902Z,98098.75
2023-04-13T13:25:49.052Z,98099.66
2023-04-13T13:28:59.731Z,98111.37
2023-04-13T13:32:02.051Z,98110.84
2023-04-13T13:35:05.978Z,98098.81
2023-04-13T13:38:08.201Z,98106.34
2023-04-13T13:41:10.904Z,98095.63
2023-04-13T13:44:13.272Z,98105.56
2023-04-13T13:47:15.634Z,98090.00
2023-04-13T13:50:18.018Z,98086.31
2023-04-13T13:53:20.448Z,98080.63
2023-04-13T13:56:22.641Z,98077.34
2023-04-13T13:59:24.887Z,98077.31
2023-04-13T14:02:27.232Z,98083.22
2023-04-13T14:05:29.615Z,98076.56
2023-04-13T14:08:31.874Z,98074.72
2023-04-13T14:11:34.407Z,98073.31
2023-04-13T14:14:36.603Z,98069.84
2023-04-13T14:17:39.238Z,98076.50
2023-04-13T14:20:41.548Z,98071.47
2023-04-13T14:23:43.758Z,98072.28
2023-04-13T14:26:45.926Z,98059.63
2023-04-13T14:29:48.179Z,98064.00
2023-04-13T14:32:51.610Z,98060.75
2023-04-13T14:35:53.861Z,98069.91
2023-04-13T14:38:56.333Z,98065.53
2023-04-13T14:41:58.512Z,98059.19
2023-04-13T14:45:01.004Z,98067.25
2023-04-13T14:48:03.571Z,98060.88
2023-04-13T14:51:06.430Z,98056.31
2023-04-13T14:54:08.913Z,98060.13
2023-04-13T14:57:11.120Z,98064.94
2023-04-13T15:00:16.261Z,98061.72
2023-04-13T15:03:18.705Z,98066.88
2023-04-13T15:06:21.237Z,98062.84
2023-04-13T15:09:23.528Z,98066.88
2023-04-13T15:12:25.834Z,98062.09
2023-04-13T15:15:30.288Z,98068.28
2023-04-13T15:18:32.519Z,98067.75
2023-04-13T15:21:37.519Z,98072.37
2023-04-13T15:24:39.717Z,98073.94
2023-04-13T15:27:42.014Z,98065.91
2023-04-13T15:30:44.331Z,98073.69
2023-04-13T15:33:46.572Z,98081.72
2023-04-13T15:36:48.779Z,98075.84
2023-04-13T15:39:51.066Z,98087.91
2023-04-13T15:42:53.273Z,98083.62
2023-04-13T15:45:56.507Z,98089.00
2023-04-13T15:48:59.859Z,98087.91
2023-04-13T15:52:02.665Z,98082.81
2023-04-13T15:55:06.158Z,98083.91
2023-04-13T15:58:08.557Z,98090.00
2023-04-13T16:01:11.704Z,98085.22
2023-04-13T16:04:14.694Z,98087.37
2023-04-13T16:07:17.284Z,98083.31
2023-04-13T16:10:19.532Z,98089.47
2023-04-13T16:13:22.605Z,98083.03
2023-04-13T16:16:27.085Z,98085.97
2023-04-13T16:19:32.717Z,98082.22
2023-04-13T16:22:36.453Z,98081.66
2023-04-13T16:25:39.780Z,98081.41
2023-04-13T16:28:42.517Z,98084.59
2023-04-13T16:31:47.956Z,98077.09
2023-04-13T16:34:51.369Z,98074.69
2023-04-13T16:37:53.542Z,98076.56
2023-04-13T16:40:58.869Z,98074.91
2023-04-13T16:44:02.289Z,98074.59
2023-04-13T16:47:04.626Z,98076.62
2023-04-13T16:50:07.677Z,98079.06
2023-04-13T16:53:11.221Z,98078.41
2023-04-13T16:56:15.896Z,98078.41
2023-04-13T16:59:19.559Z,98084.16
2023-04-13T17:02:31.253Z,98076.69
2023-04-13T17:05:33.962Z,98072.16
2023-04-13T17:08:36.177Z,98077.66
2023-04-13T17:11:38.421Z,98081.44
2023-04-13T17:14:41.289Z,98068.75
2023-04-13T17:17:44.092Z,98072.87
2023-04-13T17:20:53.755Z,98070.94
2023-04-13T17:23:55.984Z,98073.81
2023-04-13T17:26:58.755Z,98085.25
2023-04-13T17:30:02.052Z,98080.47
2023-04-13T17:33:04.776Z,98087.81
2023-04-13T17:36:07.333Z,98085.12
2023-04-13T17:39:09.583Z,98090.44
2023-04-13T17:42:12.114Z,98091.69
2023-04-13T17:45:17.152Z,98096.66
2023-04-13T17:48:19.867Z,98101.66
2023-04-13T17:51:22.331Z,98100.47
2023-04-13T17:54:24.872Z,98100.78
2023-04-13T17:57:27.268Z,98102.75
2023-04-13T18:00:29.484Z,98104.94
2023-04-13T18:03:32.204Z,98107.81
2023-04-13T18:06:34.816Z,98101.19
2023-04-13T18:09:37.340Z,98109.13
2023-04-13T18:12:40.942Z,98109.13
2023-04-13T18:15:47.381Z,98118.59
2023-04-13T18:18:50.672Z,98121.19
2023-04-13T18:21:53.115Z,98122.69
2023-04-13T18:24:55.499Z,98126.59
2023-04-13T18:27:57.953Z,98123.50
2023-04-13T18:31:00.829Z,98120.53
2023-04-13T18:34:07.078Z,98122.25
2023-04-13T18:37:09.918Z,98117.63
2023-04-13T18:40:12.651Z,98119.84
2023-04-13T18:43:15.115Z,98115.56
2023-04-13T18:46:17.356Z,98118.53
2023-04-13T18:49:19.784Z,98110.47
2023-04-13T18:52:23.735Z,98106.47
2023-04-13T18:55:28.448Z,98119.53
2023-04-13T18:58:30.894Z,98120.63
2023-04-13T19:01:33.116Z,98123.00
2023-04-13T19:04:37.446Z,98118.91
2023-04-13T19:07:40.136Z,98116.34
2023-04-13T19:10:42.749Z,98130.97
2023-04-13T19:13:48.174Z,98121.91
2023-04-13T19:16:52.511Z,98117.50
2023-04-13T19:19:56.056Z,98115.59
2023-04-13T19:22:58.587Z,98113.25
2023-04-13T19:26:01.185Z,98108.94
2023-04-13T19:29:04.122Z,98108.94
2023-04-13T19:32:10.446Z,98101.69
2023-04-13T19:35:13.712Z,98106.62
2023-04-13T19:38:16.213Z,98101.78
2023-04-13T19:41:18.537Z,98111.50
2023-04-13T19:44:21.171Z,98110.19
2023-04-13T19:47:23.786Z,98109.69
2023-04-13T19:50:26.253Z,98099.78
2023-04-13T19:53:28.777Z,98095.75
2023-04-13T19:56:31.534Z,98100.28
2023-04-13T19:59:34.192Z,98087.75
2023-04-13T20:02:36.757Z,98083.38
2023-04-13T20:05:40.063Z,98082.19
2023-04-13T20:08:45.550Z,98076.12
2023-04-13T20:11:48.046Z,98079.22
2023-04-13T20:14:50.634Z,98082.38
2023-04-13T20:17:52.904Z,98080.59
2023-04-13T20:20:55.493Z,98080.50
2023-04-13T20:23:58.459Z,98076.72
2023-04-13T20:27:01.167Z,98073.09
2023-04-13T20:30:04.624Z,98066.41
2023-04-13T20:33:07.427Z,98057.22
2023-04-13T20:36:09.782Z,98053.19
2023-04-13T20:39:13.792Z,98045.06
2023-04-13T20:42:20.050Z,98045.00
2023-04-13T20:45:23.456Z,98037.66
2023-04-13T20:51:31.336Z,98032.41
2023-04-13T20:54:33.779Z,98020.97
2023-04-13T20:57:38.647Z,98021.69
2023-04-13T21:00:43.207Z,98019.19
2023-04-13T21:03:46.319Z,98017.34
2023-04-13T21:06:50.101Z,98018.06
2023-04-13T21:09:52.420Z,98014.38
2023-04-13T21:12:54.626Z,98010.25
2023-04-13T21:15:56.822Z,98008.41
2023-04-13T21:18:59.141Z,98012.75
2023-04-13T21:22:01.379Z,98008.97
2023-04-13T21:25:05.048Z,98010.16
2023-04-13T21:28:07.234Z,98010.38
2023-04-13T21:31:09.433Z,98012.63
2023-04-13T21:34:11.605Z,98003.53
2023-04-13T21:37:13.794Z,98003.69
2023-04-13T21:40:18.106Z,98001.44
2023-04-13T21:43:20.301Z,98007.03
2023-04-13T21:46:22.515Z,98006.75
2023-04-13T21:49:24.783Z,98000.62
2023-04-13T21:52:28.857Z,98007.78
2023-04-13T21:55:31.131Z,98013.97
2023-04-13T21:58:46.296Z,98020.66
2023-04-13T22:01:48.592Z,98014.78
2023-04-13T22:04:51.455Z,98005.13
2023-04-13T22:07:53.675Z,97993.88
2023-04-13T22:10:55.965Z,97996.03
2023-04-13T22:14:00.151Z,97993.31
2023-04-13T22:17:02.435Z,97983.88
2023-04-13T22:20:04.982Z,97990.81
2023-04-13T22:23:07.259Z,97993.38
2023-04-13T22:26:09.428Z,97985.62
2023-04-13T22:29:11.868Z,97986.13
2023-04-13T22:32:14.719Z,97985.78
2023-04-13T22:35:17.102Z,97977.19
2023-04-13T22:38:19.610Z,97981.37
2023-04-13T22:41:21.930Z,97978.50
2023-04-13T22:44:24.142Z,97973.66
2023-04-13T22:47:26.511Z,97969.88
2023-04-13T22:50:28.814Z,97960.25
2023-04-13T22:53:31.172Z,97945.31
2023-04-13T22:56:33.387Z,97945.00
2023-04-13T22:59:35.648Z,97944.78
2023-04-13T23:02:38.068Z,97934.03
2023-04-13T23:05:40.751Z,97919.25
2023-04-13T23:08:42.970Z,97903.72
2023-04-13T23:11:45.144Z,97912.09
2023-04-13T23:14:47.384Z,97911.94
2023-04-13T23:17:53.562Z,97911.28
2023-04-13T23:20:55.974Z,97906.69
2023-04-13T23:23:58.191Z,97902.19
2023-04-13T23:27:00.649Z,97905.25
2023-04-13T23:30:03.555Z,97903.00
2023-04-13T23:33:05.785Z,97893.62
2023-04-13T23:36:08.487Z,97884.19
2023-04-13T23:39:10.666Z,97890.53
2023-04-13T23:42:13.120Z,97875.09
2023-04-13T23:45:16.070Z,97876.94
2023-04-13T23:48:19.053Z,97868.56
2023-04-13T23:51:22.362Z,97859.97
2023-04-13T23:54:24.619Z,97865.91
2023-04-13T23:57:26.796Z,97862.38
